Time;durP1;ratioP1;P1;durP2;ratioP2;P2;SDS_P1;SDS_P2;PMS_P1;PMS_P2;Temp;Humidity;BMP_temperature;BMP_pressure;BME280_temperature;BME280_humidity;BME280_pressure;Samples;Min_cycle;Max_cycle;Signal;HPM_P1;HPM_P2
2021/09/01 00:00:45;;;;;;;7.57;6.30;;;;;;;;;;5060744;28;20180;-74
2021/09/01 00:03:50;;;;;;;9.70;6.80;;;;;;;;;;5072008;28;20188;-74
2021/09/01 00:06:54;;;;;;;9.97;7.73;;;;;;;;;;5055995;28;20195;-73
2021/09/01 00:09:58;;;;;;;9.90;7.37;;;;;;;;;;5072344;28;20203;-75
2021/09/01 00:13:03;;;;;;;8.47;6.97;;;;;;;;;;5072344;28;20215;-74
2021/09/01 00:16:07;;;;;;;8.50;7.07;;;;;;;;;;5060376;28;20199;-74
2021/09/01 00:19:12;;;;;;;10.17;7.13;;;;;;;;;;5052403;28;20188;-74
2021/09/01 00:22:16;;;;;;;10.67;7.63;;;;;;;;;;5052595;28;20216;-74
2021/09/01 00:25:21;;;;;;;11.73;7.47;;;;;;;;;;5071995;28;20187;-74
2021/09/01 00:28:25;;;;;;;10.17;7.97;;;;;;;;;;5058398;28;20195;-74
2021/09/01 00:31:39;;;;;;;9.07;7.50;;;;;;;;;;5056263;28;20228;-74
2021/09/01 00:34:43;;;;;;;8.93;7.20;;;;;;;;;;5055973;28;20180;-74
2021/09/01 00:37:48;;;;;;;10.33;7.30;;;;;;;;;;5065983;28;20195;-75
2021/09/01 00:40:53;;;;;;;10.63;7.73;;;;;;;;;;5067543;28;20231;-75
2021/09/01 00:44:18;;;;;;;10.77;7.70;;;;;;;;;;5064380;28;20179;-74
2021/09/01 00:47:23;;;;;;;8.83;7.30;;;;;;;;;;5068138;28;20192;-74
2021/09/01 00:50:27;;;;;;;14.23;7.67;;;;;;;;;;5055994;28;20184;-75
2021/09/01 00:53:33;;;;;;;9.40;7.83;;;;;;;;;;5055131;28;20168;-75
2021/09/01 00:56:41;;;;;;;13.53;7.63;;;;;;;;;;5056572;28;20188;-74
2021/09/01 00:59:46;;;;;;;9.13;7.00;;;;;;;;;;5065986;28;20192;-74
2021/09/01 01:02:50;;;;;;;9.77;7.60;;;;;;;;;;5043205;28;20372;-74
2021/09/01 01:05:58;;;;;;;8.57;7.20;;;;;;;;;;5054776;28;20188;-74
2021/09/01 01:09:03;;;;;;;10.80;7.17;;;;;;;;;;5055449;28;20204;-75
2021/09/01 01:12:09;;;;;;;9.93;7.63;;;;;;;;;;5058820;28;20235;-74
2021/09/01 01:15:13;;;;;;;11.17;8.10;;;;;;;;;;5050965;28;20188;-75
2021/09/01 01:18:18;;;;;;;10.47;8.73;;;;;;;;;;5056860;28;20212;-74
2021/09/01 01:21:29;;;;;;;13.80;8.63;;;;;;;;;;5053583;28;20601;-74
2021/09/01 01:24:52;;;;;;;9.90;7.80;;;;;;;;;;5051107;28;20188;-74
2021/09/01 01:27:56;;;;;;;11.77;8.57;;;;;;;;;;5050770;28;20188;-74
2021/09/01 01:31:00;;;;;;;11.83;8.40;;;;;;;;;;5051374;28;20918;-74
2021/09/01 01:34:13;;;;;;;9.57;7.97;;;;;;;;;;5051383;28;20196;-74
2021/09/01 01:37:17;;;;;;;9.77;8.03;;;;;;;;;;5050423;28;20207;-75
2021/09/01 01:40:22;;;;;;;14.17;8.83;;;;;;;;;;5068100;28;20191;-75
2021/09/01 01:43:28;;;;;;;14.43;8.53;;;;;;;;;;5064745;28;20196;-75
2021/09/01 01:46:33;;;;;;;14.47;9.47;;;;;;;;;;5050140;28;20184;-75
2021/09/01 01:49:37;;;;;;;10.83;8.83;;;;;;;;;;5050199;28;20176;-75
2021/09/01 01:52:41;;;;;;;12.90;8.80;;;;;;;;;;5059967;28;20223;-74
2021/09/01 01:55:45;;;;;;;12.70;8.30;;;;;;;;;;5050183;28;20463;-75
2021/09/01 01:58:49;;;;;;;11.77;7.83;;;;;;;;;;5049813;28;20184;-74
2021/09/01 02:01:53;;;;;;;10.87;9.03;;;;;;;;;;5056507;28;20215;-74
2021/09/01 02:04:58;;;;;;;11.50;9.00;;;;;;;;;;5069807;28;20633;-74
2021/09/01 02:08:03;;;;;;;10.70;8.20;;;;;;;;;;5061028;28;20200;-75
2021/09/01 02:11:08;;;;;;;10.20;8.13;;;;;;;;;;5053221;28;20219;-74
2021/09/01 02:14:12;;;;;;;9.00;7.70;;;;;;;;;;5042101;28;20176;-75
2021/09/01 02:17:16;;;;;;;12.37;8.17;;;;;;;;;;5041953;28;20184;-75
2021/09/01 02:20:21;;;;;;;10.03;8.37;;;;;;;;;;5053425;28;20180;-75
2021/09/01 02:23:25;;;;;;;12.63;9.27;;;;;;;;;;5051552;28;20673;-75
2021/09/01 02:26:29;;;;;;;12.90;9.47;;;;;;;;;;5058075;28;20190;-75
2021/09/01 02:29:33;;;;;;;12.40;9.00;;;;;;;;;;5074029;28;20175;-75
2021/09/01 02:32:38;;;;;;;13.50;8.67;;;;;;;;;;5062008;28;20219;-75
2021/09/01 02:35:42;;;;;;;11.40;8.07;;;;;;;;;;5061555;28;20179;-75
2021/09/01 02:38:46;;;;;;;12.20;8.27;;;;;;;;;;5073583;28;20199;-75
2021/09/01 02:41:51;;;;;;;8.83;7.87;;;;;;;;;;5063161;28;20215;-75
2021/09/01 02:44:57;;;;;;;10.10;7.73;;;;;;;;;;5053042;28;20206;-75
2021/09/01 02:48:01;;;;;;;8.97;6.87;;;;;;;;;;5052698;28;20642;-75
2021/09/01 02:51:06;;;;;;;10.17;7.27;;;;;;;;;;5055959;28;20730;-75
2021/09/01 02:54:10;;;;;;;10.70;7.87;;;;;;;;;;5056592;28;20184;-75
2021/09/01 02:57:14;;;;;;;12.30;7.63;;;;;;;;;;5053331;28;20191;-75
2021/09/01 03:00:18;;;;;;;8.60;7.70;;;;;;;;;;5053490;28;20184;-75
2021/09/01 03:03:22;;;;;;;11.03;7.50;;;;;;;;;;5052797;28;20179;-75
2021/09/01 03:06:26;;;;;;;9.17;7.13;;;;;;;;;;5053297;28;20180;-75
2021/09/01 03:09:30;;;;;;;9.37;7.80;;;;;;;;;;5049441;23;20232;-81
2021/09/01 03:12:34;;;;;;;9.27;7.70;;;;;;;;;;5014451;28;20229;-81
2021/09/01 03:15:38;;;;;;;11.40;8.10;;;;;;;;;;5015285;28;20189;-80
2021/09/01 03:18:42;;;;;;;10.97;8.90;;;;;;;;;;5023211;28;20204;-80
2021/09/01 03:21:46;;;;;;;11.93;8.00;;;;;;;;;;5011872;28;20220;-81
2021/09/01 03:24:50;;;;;;;8.60;7.10;;;;;;;;;;5034617;28;20181;-80
2021/09/01 03:27:55;;;;;;;8.23;6.93;;;;;;;;;;5035240;28;20173;-80
2021/09/01 03:30:59;;;;;;;7.90;6.73;;;;;;;;;;5029871;28;20216;-81
2021/09/01 03:34:03;;;;;;;7.50;6.53;;;;;;;;;;5035286;28;20185;-81
2021/09/01 03:37:07;;;;;;;8.40;6.73;;;;;;;;;;5023218;28;20647;-80
2021/09/01 03:40:12;;;;;;;7.73;6.80;;;;;;;;;;5034809;28;20671;-79
2021/09/01 03:43:16;;;;;;;6.60;5.90;;;;;;;;;;5003309;28;20205;-80
2021/09/01 03:46:20;;;;;;;7.33;6.40;;;;;;;;;;4992186;28;20181;-80
2021/09/01 03:49:24;;;;;;;7.47;6.77;;;;;;;;;;5004153;28;20632;-79
2021/09/01 03:52:28;;;;;;;8.47;7.13;;;;;;;;;;5020825;28;20216;-80
2021/09/01 03:55:32;;;;;;;9.13;7.60;;;;;;;;;;5011422;28;20201;-81
2021/09/01 03:58:37;;;;;;;10.17;8.37;;;;;;;;;;5034309;28;20201;-80
2021/09/01 04:01:41;;;;;;;8.57;7.67;;;;;;;;;;5013015;28;20220;-79
2021/09/01 04:04:45;;;;;;;11.60;7.97;;;;;;;;;;5026682;28;20200;-79
2021/09/01 04:07:50;;;;;;;9.87;7.77;;;;;;;;;;5027013;28;20177;-80
2021/09/01 04:10:54;;;;;;;8.67;7.20;;;;;;;;;;5037873;28;20220;-79
2021/09/01 04:13:58;;;;;;;8.60;7.07;;;;;;;;;;5037780;28;20193;-80
2021/09/01 04:17:02;;;;;;;14.30;7.90;;;;;;;;;;5038157;28;20231;-80
2021/09/01 04:20:07;;;;;;;12.70;7.17;;;;;;;;;;5038008;28;20209;-79
2021/09/01 04:23:12;;;;;;;10.67;6.27;;;;;;;;;;5018111;28;20213;-81
2021/09/01 04:26:16;;;;;;;9.20;6.67;;;;;;;;;;5020250;28;20197;-80
2021/09/01 04:29:20;;;;;;;6.90;6.10;;;;;;;;;;5049996;28;20632;-79
2021/09/01 04:32:24;;;;;;;7.13;5.37;;;;;;;;;;5037251;28;20221;-79
2021/09/01 04:35:34;;;;;;;8.30;5.63;;;;;;;;;;5048977;28;20525;-80
2021/09/01 04:38:38;;;;;;;5.70;4.57;;;;;;;;;;5050030;28;20200;-79
2021/09/01 04:41:42;;;;;;;8.43;5.53;;;;;;;;;;5026311;28;20228;-80
2021/09/01 04:44:46;;;;;;;9.83;5.93;;;;;;;;;;5015707;28;20192;-80
2021/09/01 04:47:50;;;;;;;7.70;5.87;;;;;;;;;;5037609;28;20200;-79
2021/09/01 04:50:54;;;;;;;9.97;6.27;;;;;;;;;;5025653;28;20220;-80
2021/09/01 04:53:59;;;;;;;6.77;5.03;;;;;;;;;;5025968;28;20180;-80
2021/09/01 04:57:03;;;;;;;7.40;5.83;;;;;;;;;;5037868;28;20193;-79
2021/09/01 05:00:08;;;;;;;9.67;5.50;;;;;;;;;;5038889;28;20181;-81
2021/09/01 05:03:12;;;;;;;7.43;5.47;;;;;;;;;;5006389;28;20209;-81
2021/09/01 05:06:16;;;;;;;6.03;5.30;;;;;;;;;;5006759;28;20539;-79
2021/09/01 05:09:20;;;;;;;8.63;5.70;;;;;;;;;;5006074;28;20567;-79
2021/09/01 05:12:27;;;;;;;5.33;4.60;;;;;;;;;;5034763;28;20216;-79
2021/09/01 05:15:31;;;;;;;9.30;5.60;;;;;;;;;;5037403;28;20189;-81
2021/09/01 05:18:35;;;;;;;5.73;4.90;;;;;;;;;;5025625;28;20189;-79
2021/09/01 05:21:50;;;;;;;13.23;6.40;;;;;;;;;;5036898;28;20682;-79
2021/09/01 05:25:02;;;;;;;13.53;5.97;;;;;;;;;;5025259;28;20181;-79
2021/09/01 05:28:06;;;;;;;30.20;7.43;;;;;;;;;;5024073;28;20188;-81
2021/09/01 05:31:11;;;;;;;18.50;7.10;;;;;;;;;;5034164;28;20229;-74
2021/09/01 05:34:18;;;;;;;14.43;6.33;;;;;;;;;;5035051;28;20525;-74
2021/09/01 05:37:23;;;;;;;19.80;7.87;;;;;;;;;;5034498;28;20204;-74
2021/09/01 05:40:29;;;;;;;20.63;7.30;;;;;;;;;;5034947;28;20184;-74
2021/09/01 05:43:34;;;;;;;10.87;6.67;;;;;;;;;;5014833;28;20208;-74
2021/09/01 05:46:38;;;;;;;8.43;5.53;;;;;;;;;;5030050;28;20536;-74
2021/09/01 05:49:44;;;;;;;9.47;6.03;;;;;;;;;;5034978;28;20632;-74
2021/09/01 05:52:48;;;;;;;8.60;6.60;;;;;;;;;;5013967;28;20217;-74
2021/09/01 05:55:54;;;;;;;12.30;7.83;;;;;;;;;;5021825;28;20192;-74
2021/09/01 05:59:08;;;;;;;16.23;7.30;;;;;;;;;;5022610;28;20540;-75
2021/09/01 06:03:02;;;;;;;12.13;8.10;;;;;;;;;;5042688;28;20221;-74
2021/09/01 06:06:09;;;;;;;11.87;7.70;;;;;;;;;;5034346;28;20196;-74
2021/09/01 06:09:13;;;;;;;12.57;8.53;;;;;;;;;;5033133;28;20220;-75
2021/09/01 06:12:22;;;;;;;11.77;8.23;;;;;;;;;;5044578;28;20228;-75
2021/09/01 06:15:25;;;;;;;12.17;8.27;;;;;;;;;;5044174;28;20189;-74
2021/09/01 06:18:29;;;;;;;12.53;8.37;;;;;;;;;;5033360;28;20193;-74
2021/09/01 06:21:34;;;;;;;11.30;8.90;;;;;;;;;;5033441;28;20228;-74
2021/09/01 06:24:38;;;;;;;13.13;8.60;;;;;;;;;;5033183;28;20675;-75
2021/09/01 06:27:42;;;;;;;10.87;8.50;;;;;;;;;;5033499;28;20184;-75
2021/09/01 06:30:46;;;;;;;12.50;9.83;;;;;;;;;;5033314;28;20188;-74
2021/09/01 06:33:51;;;;;;;13.40;9.20;;;;;;;;;;5014159;28;20541;-74
2021/09/01 06:36:55;;;;;;;18.50;11.47;;;;;;;;;;5014167;28;20205;-73
2021/09/01 06:39:59;;;;;;;13.70;10.73;;;;;;;;;;5022402;28;20674;-74
2021/09/01 06:43:03;;;;;;;21.67;12.07;;;;;;;;;;5031522;28;20220;-74
2021/09/01 06:46:07;;;;;;;15.23;11.30;;;;;;;;;;5032674;28;20188;-73
2021/09/01 06:49:11;;;;;;;16.63;10.20;;;;;;;;;;5033381;28;20184;-74
2021/09/01 06:52:16;;;;;;;12.93;9.80;;;;;;;;;;5033623;28;20219;-74
2021/09/01 06:55:20;;;;;;;19.10;9.97;;;;;;;;;;5033510;28;20635;-74
2021/09/01 06:58:24;;;;;;;10.60;9.33;;;;;;;;;;5044008;28;20569;-74
2021/09/01 07:01:29;;;;;;;12.73;9.37;;;;;;;;;;5033106;28;20713;-74
2021/09/01 07:04:33;;;;;;;14.43;10.17;;;;;;;;;;5032435;28;20204;-73
2021/09/01 07:07:38;;;;;;;15.10;9.50;;;;;;;;;;5029553;28;20191;-73
2021/09/01 07:10:43;;;;;;;11.60;9.00;;;;;;;;;;5012688;28;20209;-73
2021/09/01 07:13:47;;;;;;;11.20;8.03;;;;;;;;;;5025620;28;20524;-73
2021/09/01 07:16:52;;;;;;;11.77;8.57;;;;;;;;;;5033481;28;20177;-73
2021/09/01 07:19:56;;;;;;;13.03;8.90;;;;;;;;;;5033601;28;20181;-73
2021/09/01 07:23:00;;;;;;;9.57;8.20;;;;;;;;;;5030020;28;20524;-72
2021/09/01 07:26:05;;;;;;;11.73;8.47;;;;;;;;;;5033162;28;20200;-73
2021/09/01 07:29:09;;;;;;;12.87;8.77;;;;;;;;;;5013692;28;20190;-73
2021/09/01 07:32:13;;;;;;;11.10;8.20;;;;;;;;;;5013097;28;20573;-73
2021/09/01 07:35:18;;;;;;;13.17;8.20;;;;;;;;;;5014761;28;20174;-74
2021/09/01 07:38:21;;;;;;;16.43;8.93;;;;;;;;;;5018058;28;20197;-74
2021/09/01 07:41:26;;;;;;;17.80;8.93;;;;;;;;;;5017831;28;20229;-74
2021/09/01 07:44:30;;;;;;;14.33;8.10;;;;;;;;;;5036288;28;20212;-74
2021/09/01 07:47:39;;;;;;;11.37;8.33;;;;;;;;;;5037172;28;20793;-74
2021/09/01 07:51:15;;;;;;;12.50;8.10;;;;;;;;;;5037809;28;20636;-73
2021/09/01 07:54:37;;;;;;;11.57;7.93;;;;;;;;;;5037137;28;20185;-73
2021/09/01 07:57:41;;;;;;;12.90;7.60;;;;;;;;;;5037694;28;20176;-73
2021/09/01 08:00:46;;;;;;;11.60;7.63;;;;;;;;;;5035943;28;20535;-73
2021/09/01 08:03:49;;;;;;;9.80;8.00;;;;;;;;;;5036504;28;20216;-73
2021/09/01 08:06:53;;;;;;;9.97;7.60;;;;;;;;;;5037444;28;20204;-73
2021/09/01 08:09:58;;;;;;;9.40;7.00;;;;;;;;;;5036970;28;20204;-73
2021/09/01 08:13:02;;;;;;;13.10;7.40;;;;;;;;;;5036570;28;20177;-73
2021/09/01 08:16:08;;;;;;;8.83;6.73;;;;;;;;;;5035761;28;20202;-73
2021/09/01 08:19:12;;;;;;;9.57;6.53;;;;;;;;;;5035913;28;20181;-74
2021/09/01 08:22:16;;;;;;;9.37;6.37;;;;;;;;;;5036867;28;20216;-74
2021/09/01 08:25:21;;;;;;;12.17;7.17;;;;;;;;;;5036046;28;20204;-74
2021/09/01 08:28:25;;;;;;;8.37;6.80;;;;;;;;;;5036271;28;20181;-73
2021/09/01 08:31:29;;;;;;;9.93;7.47;;;;;;;;;;5036436;28;20224;-74
2021/09/01 08:34:33;;;;;;;10.57;6.33;;;;;;;;;;5036212;28;20176;-74
2021/09/01 08:37:38;;;;;;;9.70;5.97;;;;;;;;;;5036388;28;20624;-74
2021/09/01 08:40:43;;;;;;;9.23;6.73;;;;;;;;;;5036082;28;20185;-74
2021/09/01 08:43:47;;;;;;;10.77;6.53;;;;;;;;;;5036177;28;20205;-74
2021/09/01 08:46:55;;;;;;;8.80;6.23;;;;;;;;;;5035130;28;20536;-74
2021/09/01 08:49:58;;;;;;;7.80;4.80;;;;;;;;;;5035894;28;20185;-74
2021/09/01 08:53:02;;;;;;;7.63;4.47;;;;;;;;;;5035577;28;20188;-74
2021/09/01 08:56:07;;;;;;;6.63;4.17;;;;;;;;;;5035711;28;20177;-74
2021/09/01 08:59:11;;;;;;;12.27;4.27;;;;;;;;;;5035990;28;20513;-75
2021/09/01 09:02:25;;;;;;;16.07;6.57;;;;;;;;;;5022893;28;20221;-74
2021/09/01 09:05:34;;;;;;;11.70;5.27;;;;;;;;;;5034488;28;20205;-74
2021/09/01 09:08:38;;;;;;;11.67;4.27;;;;;;;;;;5035677;28;20200;-76
2021/09/01 09:11:43;;;;;;;11.70;4.63;;;;;;;;;;5035393;28;20702;-74
2021/09/01 09:14:48;;;;;;;14.87;6.10;;;;;;;;;;5035709;28;20172;-75
2021/09/01 09:17:52;;;;;;;11.17;5.47;;;;;;;;;;5015596;28;20181;-75
2021/09/01 09:21:20;;;;;;;56.07;6.50;;;;;;;;;;5015595;28;20569;-75
2021/09/01 09:24:24;;;;;;;12.43;5.17;;;;;;;;;;5020541;28;20212;-75
2021/09/01 09:27:52;;;;;;;10.00;4.00;;;;;;;;;;5029956;28;20672;-75
2021/09/01 09:31:00;;;;;;;9.03;4.10;;;;;;;;;;5003420;28;20687;-75
2021/09/01 09:34:05;;;;;;;4.83;3.73;;;;;;;;;;5015351;28;20181;-75
2021/09/01 09:37:12;;;;;;;11.00;4.30;;;;;;;;;;5034863;28;20190;-75
2021/09/01 09:40:16;;;;;;;6.93;3.57;;;;;;;;;;5034696;28;20206;-75
2021/09/01 09:43:23;;;;;;;11.40;3.80;;;;;;;;;;5034804;28;20203;-75
2021/09/01 09:46:27;;;;;;;6.97;3.37;;;;;;;;;;5019868;28;20184;-75
2021/09/01 09:49:33;;;;;;;4.87;3.10;;;;;;;;;;5034969;28;20199;-75
2021/09/01 09:52:37;;;;;;;4.03;3.37;;;;;;;;;;5034457;28;20222;-75
2021/09/01 09:56:02;;;;;;;5.40;2.97;;;;;;;;;;5034827;28;20188;-75
2021/09/01 09:59:06;;;;;;;7.50;3.33;;;;;;;;;;5034454;28;20185;-75
2021/09/01 10:02:10;;;;;;;4.77;2.87;;;;;;;;;;5034155;28;20225;-75
2021/09/01 10:05:17;;;;;;;5.82;2.97;;;;;;;;;;5033979;28;20549;-75
2021/09/01 10:08:21;;;;;;;6.13;3.17;;;;;;;;;;5034165;28;20640;-75
2021/09/01 10:11:25;;;;;;;6.72;2.70;;;;;;;;;;5041113;28;20218;-74
2021/09/01 10:14:30;;;;;;;3.20;2.70;;;;;;;;;;5020653;28;20184;-75
2021/09/01 10:17:48;;;;;;;7.40;3.28;;;;;;;;;;5011079;28;20185;-74
2021/09/01 10:20:52;;;;;;;6.90;3.15;;;;;;;;;;5016430;28;20216;-74
2021/09/01 10:23:57;;;;;;;4.88;3.20;;;;;;;;;;5030011;28;20200;-74
2021/09/01 10:27:12;;;;;;;6.00;3.45;;;;;;;;;;5041079;28;20207;-74
2021/09/01 10:30:16;;;;;;;4.55;3.00;;;;;;;;;;5030678;28;20185;-74
2021/09/01 10:34:01;;;;;;;5.90;3.30;;;;;;;;;;5030527;28;20207;-74
2021/09/01 10:37:05;;;;;;;5.20;2.80;;;;;;;;;;4991824;28;20673;-74
2021/09/01 10:40:12;;;;;;;4.38;3.22;;;;;;;;;;5041094;28;20188;-74
2021/09/01 10:43:19;;;;;;;5.55;3.38;;;;;;;;;;5009863;28;20184;-74
2021/09/01 10:46:23;;;;;;;3.05;2.75;;;;;;;;;;5010053;28;20179;-75
2021/09/01 10:49:55;;;;;;;4.93;3.28;;;;;;;;;;5012927;28;20189;-74
2021/09/01 10:53:06;;;;;;;4.85;3.20;;;;;;;;;;5033212;28;20493;-74
2021/09/01 10:56:14;;;;;;;4.38;3.17;;;;;;;;;;5012999;28;20676;-75
2021/09/01 10:59:29;;;;;;;4.03;3.03;;;;;;;;;;5014103;28;20181;-74
2021/09/01 11:02:48;;;;;;;3.80;2.80;;;;;;;;;;5013863;28;20231;-77
2021/09/01 11:05:52;;;;;;;3.30;2.88;;;;;;;;;;5031273;28;20216;-77
2021/09/01 11:09:05;;;;;;;3.40;3.08;;;;;;;;;;5033239;28;20206;-76
2021/09/01 11:12:13;;;;;;;4.03;3.03;;;;;;;;;;5033096;28;20221;-77
2021/09/01 11:15:16;;;;;;;6.28;3.25;;;;;;;;;;5032463;28;20198;-77
2021/09/01 11:18:20;;;;;;;3.50;3.20;;;;;;;;;;5026356;28;20208;-77
2021/09/01 11:21:26;;;;;;;4.88;3.10;;;;;;;;;;5043776;28;20227;-77
2021/09/01 11:24:40;;;;;;;6.53;3.10;;;;;;;;;;5033449;28;20214;-77
2021/09/01 11:27:47;;;;;;;4.10;3.50;;;;;;;;;;5033249;28;20634;-77
2021/09/01 11:30:51;;;;;;;3.80;3.17;;;;;;;;;;5033626;28;20215;-78
2021/09/01 11:33:57;;;;;;;4.10;3.53;;;;;;;;;;5032809;28;20200;-77
2021/09/01 11:37:02;;;;;;;5.45;3.20;;;;;;;;;;5012531;28;20197;-77
2021/09/01 11:40:07;;;;;;;8.82;3.33;;;;;;;;;;5013155;28;20195;-77
2021/09/01 11:43:13;;;;;;;5.70;3.47;;;;;;;;;;5015955;28;20198;-77
2021/09/01 11:46:19;;;;;;;5.90;2.85;;;;;;;;;;5027539;28;20208;-77
2021/09/01 11:49:23;;;;;;;9.40;3.85;;;;;;;;;;5013873;28;20640;-76
2021/09/01 11:52:28;;;;;;;5.75;3.35;;;;;;;;;;5023274;28;20230;-77
2021/09/01 11:55:32;;;;;;;4.05;3.45;;;;;;;;;;5034823;28;20183;-78
2021/09/01 11:58:37;;;;;;;4.32;3.42;;;;;;;;;;5034377;28;20193;-77
2021/09/01 12:01:47;;;;;;;5.18;2.90;;;;;;;;;;5033173;28;20221;-77
2021/09/01 12:04:52;;;;;;;13.63;4.40;;;;;;;;;;5032334;28;20211;-77
2021/09/01 12:07:57;;;;;;;3.88;3.35;;;;;;;;;;5032974;28;20521;-77
2021/09/01 12:11:00;;;;;;;4.13;3.33;;;;;;;;;;5044007;28;20217;-77
2021/09/01 12:14:07;;;;;;;5.03;3.05;;;;;;;;;;5032085;28;20196;-77
2021/09/01 12:17:17;;;;;;;6.25;3.03;;;;;;;;;;5032598;28;20638;-77
2021/09/01 12:20:20;;;;;;;4.88;3.15;;;;;;;;;;5032078;28;20191;-77
2021/09/01 12:23:25;;;;;;;8.45;3.50;;;;;;;;;;5035480;28;20526;-77
2021/09/01 12:26:29;;;;;;;5.40;3.53;;;;;;;;;;5036226;28;20216;-77
2021/09/01 12:29:50;;;;;;;4.55;3.33;;;;;;;;;;5035894;28;20192;-77
2021/09/01 12:32:59;;;;;;;4.32;3.70;;;;;;;;;;5030335;28;20226;-77
2021/09/01 12:36:03;;;;;;;5.70;3.17;;;;;;;;;;5024461;28;20178;-77
2021/09/01 12:39:16;;;;;;;8.60;3.25;;;;;;;;;;5034923;28;20656;-77
2021/09/01 12:42:28;;;;;;;7.00;3.20;;;;;;;;;;5035156;28;20224;-77
2021/09/01 12:45:34;;;;;;;5.25;3.30;;;;;;;;;;5035084;28;20206;-77
2021/09/01 12:48:41;;;;;;;3.92;3.15;;;;;;;;;;5029589;28;20206;-77
2021/09/01 12:51:46;;;;;;;4.18;3.10;;;;;;;;;;5023684;28;20228;-77
2021/09/01 12:54:54;;;;;;;7.00;3.55;;;;;;;;;;5035684;28;20644;-77
2021/09/01 12:57:59;;;;;;;3.70;3.10;;;;;;;;;;5035713;28;20184;-77
2021/09/01 13:01:03;;;;;;;5.07;3.22;;;;;;;;;;5046583;28;20219;-77
2021/09/01 13:04:07;;;;;;;4.28;3.20;;;;;;;;;;5035728;28;20201;-77
2021/09/01 13:07:12;;;;;;;4.45;3.03;;;;;;;;;;5035607;28;20552;-77
2021/09/01 13:10:20;;;;;;;6.75;3.75;;;;;;;;;;5034640;28;20205;-77
2021/09/01 13:13:24;;;;;;;5.45;4.00;;;;;;;;;;5034994;28;20194;-76
2021/09/01 13:16:28;;;;;;;5.15;3.65;;;;;;;;;;5035561;28;20183;-77
2021/09/01 13:19:32;;;;;;;5.70;3.80;;;;;;;;;;5034866;28;20187;-77
2021/09/01 13:22:37;;;;;;;4.32;3.58;;;;;;;;;;5034649;28;20218;-76
2021/09/01 13:25:41;;;;;;;4.50;3.30;;;;;;;;;;5034408;28;20201;-78
2021/09/01 13:28:46;;;;;;;5.57;3.67;;;;;;;;;;5035503;28;20179;-77
2021/09/01 13:31:50;;;;;;;9.70;3.80;;;;;;;;;;5035145;28;20227;-77
2021/09/01 13:34:54;;;;;;;6.85;3.53;;;;;;;;;;5033662;28;20548;-77
2021/09/01 13:37:58;;;;;;;6.25;3.42;;;;;;;;;;5012069;28;20184;-77
2021/09/01 13:41:03;;;;;;;4.40;3.42;;;;;;;;;;5034044;28;20218;-77
2021/09/01 13:44:08;;;;;;;4.78;3.20;;;;;;;;;;5034830;28;20207;-77
2021/09/01 13:47:12;;;;;;;4.45;3.38;;;;;;;;;;5033616;28;20703;-77
2021/09/01 13:50:15;;;;;;;5.70;3.20;;;;;;;;;;5034273;28;20186;-77
2021/09/01 13:53:20;;;;;;;6.53;3.55;;;;;;;;;;5033831;28;20643;-77
2021/09/01 13:56:26;;;;;;;3.40;3.00;;;;;;;;;;5034925;28;20175;-77
2021/09/01 13:59:31;;;;;;;9.43;3.22;;;;;;;;;;5033785;28;20643;-77
2021/09/01 14:02:36;;;;;;;4.65;3.03;;;;;;;;;;5033992;28;20235;-77
2021/09/01 14:05:40;;;;;;;5.75;3.50;;;;;;;;;;5034014;28;20215;-77
2021/09/01 14:08:52;;;;;;;4.60;3.38;;;;;;;;;;5033808;28;20206;-77
2021/09/01 14:11:57;;;;;;;3.72;3.03;;;;;;;;;;5033547;28;20580;-77
2021/09/01 14:15:02;;;;;;;7.97;3.67;;;;;;;;;;5034547;28;20193;-77
2021/09/01 14:18:07;;;;;;;6.07;3.45;;;;;;;;;;5034241;28;20183;-77
2021/09/01 14:21:12;;;;;;;4.60;3.53;;;;;;;;;;5034353;28;20209;-77
2021/09/01 14:24:16;;;;;;;4.85;3.03;;;;;;;;;;5034453;28;20185;-77
2021/09/01 14:27:21;;;;;;;4.72;3.53;;;;;;;;;;5032966;28;20206;-77
2021/09/01 14:30:25;;;;;;;5.13;3.25;;;;;;;;;;5033474;28;20193;-77
2021/09/01 14:33:30;;;;;;;5.47;3.20;;;;;;;;;;5033913;28;20207;-77
2021/09/01 14:36:34;;;;;;;4.82;3.70;;;;;;;;;;5034203;28;20183;-77
2021/09/01 14:39:38;;;;;;;6.95;3.88;;;;;;;;;;5033318;28;20190;-77
2021/09/01 14:42:42;;;;;;;4.35;3.30;;;;;;;;;;5033749;28;20563;-77
2021/09/01 14:45:46;;;;;;;4.90;3.13;;;;;;;;;;5032937;28;20226;-77
2021/09/01 14:48:49;;;;;;;5.55;3.33;;;;;;;;;;5032611;28;20544;-77
2021/09/01 14:51:53;;;;;;;4.65;3.13;;;;;;;;;;5033998;28;20221;-76
2021/09/01 14:54:57;;;;;;;5.03;3.47;;;;;;;;;;5034367;28;20189;-77
2021/09/01 14:58:02;;;;;;;5.18;3.40;;;;;;;;;;5033186;28;20185;-77
2021/09/01 15:01:06;;;;;;;8.43;3.42;;;;;;;;;;5033760;28;20213;-77
2021/09/01 15:04:10;;;;;;;4.20;3.25;;;;;;;;;;5021737;28;20635;-77
2021/09/01 15:07:15;;;;;;;6.72;3.47;;;;;;;;;;5033448;28;20298;-77
2021/09/01 15:10:20;;;;;;;5.25;3.15;;;;;;;;;;5022974;28;20213;-77
2021/09/01 15:13:24;;;;;;;5.40;3.33;;;;;;;;;;5033721;28;20631;-77
2021/09/01 15:16:28;;;;;;;3.97;3.17;;;;;;;;;;5033358;28;20199;-77
2021/09/01 15:19:33;;;;;;;5.85;3.42;;;;;;;;;;5032353;28;20209;-77
2021/09/01 15:22:39;;;;;;;4.60;3.50;;;;;;;;;;5032604;28;20227;-77
2021/09/01 15:25:44;;;;;;;4.32;3.35;;;;;;;;;;5032975;28;20213;-77
2021/09/01 15:28:48;;;;;;;4.30;3.47;;;;;;;;;;5033133;28;20183;-77
2021/09/01 15:31:52;;;;;;;37.70;4.20;;;;;;;;;;5032454;28;20556;-77
2021/09/01 15:34:56;;;;;;;5.15;3.33;;;;;;;;;;5031303;28;20202;-77
2021/09/01 15:38:00;;;;;;;5.80;3.80;;;;;;;;;;5026922;28;20195;-77
2021/09/01 15:41:05;;;;;;;10.60;3.90;;;;;;;;;;5033719;28;20222;-77
2021/09/01 15:44:13;;;;;;;18.17;5.30;;;;;;;;;;5034931;28;20205;-77
2021/09/01 15:47:20;;;;;;;4.77;3.50;;;;;;;;;;5022023;28;20685;-76
2021/09/01 15:50:25;;;;;;;15.30;4.07;;;;;;;;;;5034277;28;20180;-77
2021/09/01 15:53:29;;;;;;;10.87;3.53;;;;;;;;;;5021573;28;20673;-77
2021/09/01 15:56:34;;;;;;;6.53;3.67;;;;;;;;;;5015012;28;20183;-77
2021/09/01 15:59:41;;;;;;;9.37;3.50;;;;;;;;;;5012102;28;20185;-77
2021/09/01 16:02:45;;;;;;;8.53;3.93;;;;;;;;;;5034653;28;20217;-77
2021/09/01 16:05:51;;;;;;;8.83;3.40;;;;;;;;;;5044849;28;20201;-78
2021/09/01 16:08:56;;;;;;;6.30;3.53;;;;;;;;;;5044197;28;20204;-77
2021/09/01 16:12:03;;;;;;;15.00;4.53;;;;;;;;;;5032264;28;20221;-77
2021/09/01 16:15:10;;;;;;;4.37;3.50;;;;;;;;;;5025486;28;20663;-77
2021/09/01 16:18:42;;;;;;;7.27;3.93;;;;;;;;;;5032648;28;20192;-77
2021/09/01 16:21:50;;;;;;;6.07;3.57;;;;;;;;;;5032823;28;20556;-77
2021/09/01 16:24:59;;;;;;;6.87;3.87;;;;;;;;;;5031022;28;20529;-77
2021/09/01 16:28:06;;;;;;;5.43;3.50;;;;;;;;;;5033365;28;20185;-77
2021/09/01 16:31:10;;;;;;;6.23;3.90;;;;;;;;;;5019266;28;20221;-77
2021/09/01 16:34:14;;;;;;;9.13;3.80;;;;;;;;;;5014715;28;20186;-77
2021/09/01 16:37:20;;;;;;;10.30;4.27;;;;;;;;;;5033670;28;20193;-77
2021/09/01 16:40:36;;;;;;;7.80;3.63;;;;;;;;;;5013276;28;20193;-77
2021/09/01 16:43:40;;;;;;;4.67;3.53;;;;;;;;;;5028495;28;20192;-77
2021/09/01 16:46:48;;;;;;;5.63;3.50;;;;;;;;;;5032415;28;20205;-78
2021/09/01 16:49:53;;;;;;;4.93;3.60;;;;;;;;;;5012158;28;20186;-77
2021/09/01 16:53:02;;;;;;;9.60;4.00;;;;;;;;;;5021770;28;20189;-77
2021/09/01 16:56:11;;;;;;;10.67;3.80;;;;;;;;;;5036403;28;20173;-78
2021/09/01 16:59:21;;;;;;;6.20;3.80;;;;;;;;;;5024989;28;20177;-78
2021/09/01 17:02:25;;;;;;;4.50;3.80;;;;;;;;;;5006048;28;20221;-79
2021/09/01 17:05:30;;;;;;;6.03;3.97;;;;;;;;;;5036120;28;20176;-78
2021/09/01 17:08:35;;;;;;;8.87;4.27;;;;;;;;;;5037703;28;20197;-78
2021/09/01 17:11:40;;;;;;;5.33;3.57;;;;;;;;;;5048535;28;20751;-78
2021/09/01 17:14:44;;;;;;;5.23;3.83;;;;;;;;;;5036917;28;20208;-78
2021/09/01 17:17:49;;;;;;;6.10;4.33;;;;;;;;;;5034090;28;20765;-78
2021/09/01 17:20:53;;;;;;;10.40;5.27;;;;;;;;;;5037838;28;20221;-77
2021/09/01 17:24:01;;;;;;;8.27;5.80;;;;;;;;;;5038129;28;20200;-77
2021/09/01 17:27:07;;;;;;;10.13;4.77;;;;;;;;;;5015079;28;20217;-77
2021/09/01 17:30:13;;;;;;;6.43;4.57;;;;;;;;;;5015768;28;20177;-79
2021/09/01 17:33:18;;;;;;;10.40;4.33;;;;;;;;;;5035162;28;20192;-78
2021/09/01 17:36:23;;;;;;;16.30;4.80;;;;;;;;;;5026462;28;20185;-77
2021/09/01 17:39:29;;;;;;;7.73;3.97;;;;;;;;;;5014623;28;20181;-77
2021/09/01 17:42:34;;;;;;;6.97;4.03;;;;;;;;;;5010472;28;20212;-78
2021/09/01 17:45:38;;;;;;;4.70;4.10;;;;;;;;;;5032822;28;20924;-77
2021/09/01 17:48:45;;;;;;;5.43;4.10;;;;;;;;;;5028667;28;20185;-78
2021/09/01 17:51:51;;;;;;;4.97;3.83;;;;;;;;;;5033326;28;20208;-78
2021/09/01 17:54:55;;;;;;;6.27;3.93;;;;;;;;;;5023456;28;20188;-78
2021/09/01 17:57:59;;;;;;;5.37;3.80;;;;;;;;;;5033180;28;20176;-78
2021/09/01 18:01:05;;;;;;;5.40;4.13;;;;;;;;;;5034830;28;20703;-78
2021/09/01 18:04:09;;;;;;;6.13;4.07;;;;;;;;;;5043249;28;20199;-78
2021/09/01 18:07:15;;;;;;;8.83;3.80;;;;;;;;;;5036288;28;20216;-78
2021/09/01 18:10:20;;;;;;;7.20;4.10;;;;;;;;;;5026480;28;20217;-78
2021/09/01 18:13:26;;;;;;;10.47;3.90;;;;;;;;;;5024952;28;20180;-77
2021/09/01 18:16:30;;;;;;;5.10;4.17;;;;;;;;;;5014351;28;20189;-78
2021/09/01 18:19:35;;;;;;;8.07;4.50;;;;;;;;;;5024494;28;20189;-77
2021/09/01 18:22:39;;;;;;;5.77;3.80;;;;;;;;;;5035745;28;20220;-77
2021/09/01 18:25:43;;;;;;;5.47;3.87;;;;;;;;;;5014033;28;20181;-77
2021/09/01 18:28:48;;;;;;;8.47;4.40;;;;;;;;;;5014475;28;20189;-78